Maran Canopus — SXUQ — position and weather

sailwx.info

Track history (hours):
 
Tides and Currents Weather Stations Pressure Air Temp Water Temp Dewpoint Dewpoint Depression Visibility Wind Speed Wind Dir Waves Ship Positions

Maran Canopus

Last reported at 2017-Aug-20 12:05 UTC. Time now 2017-Sep-24 13:57 UTC.
Position N 01°19' E 103°18'.
Warning: this ship's position is 35 days out of date.

Length 333 m; draft 11.4 m.

Type: Ship (hazmat cat A). MMSI: 240677000.

Date/timePositionNaut miles runAvg speedWind from/ knotsBaromVisibWave heightAir tempDewpointWater temp
2017-Aug-20 12:05N 01°19' E 103°18'113.9
2017-Aug-20 11:59N 01°18' E 103°19'714.8
2017-Aug-20 11:30N 01°15' E 103°26'610.8
2017-Aug-20 10:59N 01°13' E 103°31'4 8.0
2017-Aug-20 10:30N 01°12' E 103°35'4 8.2
2017-Aug-20 10:00N 01°11' E 103°39'4 7.7
2017-Aug-20 09:30N 01°09' E 103°42'4 7.5
2017-Aug-20 09:00N 01°09' E 103°46'4 8.0
2017-Aug-20 08:30N 01°11' E 103°50'4 8.7
2017-Aug-20 08:01N 01°13' E 103°54'4 7.6
2017-Aug-20 07:30N 01°15' E 103°57'4 7.2
2017-Aug-20 06:59N 01°16' E 104°01'4 7.3
2017-Aug-20 06:29N 01°17' E 104°04'2 0.5
2017-Aug-20 03:13N 01°18' E 104°05'0 0.0
2017-Aug-20 01:22N 01°18' E 104°05'0 0.1
2017-Aug-19 22:46N 01°19' E 104°05'0 0.1
2017-Aug-19 22:07N 01°18' E 104°05'0 0.0
2017-Aug-19 21:55N 01°18' E 104°05'0 0.0
2017-Aug-19 21:10N 01°18' E 104°05'0 0.0
2017-Aug-19 20:43N 01°18' E 104°05'0 0.0
2017-Aug-19 20:10N 01°18' E 104°05'0 0.0
2017-Aug-19 19:46N 01°18' E 104°05'0 0.0
2017-Aug-19 19:22N 01°18' E 104°05'0 0.0
2017-Aug-19 18:58N 01°18' E 104°05'0 0.0
2017-Aug-19 18:07N 01°18' E 104°05'0 0.0
2017-Aug-19 17:52N 01°18' E 104°05'0 0.0
2017-Aug-19 17:16N 01°18' E 104°05'0 0.0
2017-Aug-19 16:46N 01°18' E 104°05'0 0.1
2017-Aug-19 16:25N 01°18' E 104°05'0 0.1
2017-Aug-19 15:58N 01°18' E 104°05'0 0.1
2017-Aug-19 15:22N 01°18' E 104°05'0 0.1
2017-Aug-19 14:43N 01°18' E 104°05'0 0.3
2017-Aug-19 13:49N 01°19' E 104°05'0 0.1
2017-Aug-19 12:10N 01°18' E 104°05'0 0.1
2017-Aug-19 11:58N 01°18' E 104°05'0 0.0
2017-Aug-19 06:01N 01°18' E 104°05'0 0.1
2017-Aug-19 05:58N 01°18' E 104°05'0 0.0
2017-Aug-19 02:28N 01°18' E 104°05'0 0.3
2017-Aug-19 02:00N 01°18' E 104°05'1 0.8
2017-Aug-19 01:09N 01°18' E 104°05'0 0.0
2017-Aug-19 00:43N 01°18' E 104°05'0 1.6
2017-Aug-19 00:30N 01°18' E 104°06'1 2.7
2017-Aug-19 00:00N 01°17' E 104°06'3 5.6
2017-Aug-18 23:30N 01°15' E 104°04'1 2.6
2017-Aug-18 23:01N 01°16' E 104°05'  
2017-Aug-10 19:30N 01°16' E 104°07'4 5.8
2017-Aug-10 18:53N 01°15' E 104°03'2 4.5
2017-Aug-10 18:31N 01°15' E 104°02'3 5.2
2017-Aug-10 18:00N 01°15' E 103°59'510.4
2017-Aug-10 17:31N 01°13' E 103°54'611.8
2017-Aug-10 17:00N 01°10' E 103°49'611.5
2017-Aug-10 16:30N 01°07' E 103°44'611.6
2017-Aug-10 16:00N 01°04' E 103°40'611.3
2017-Aug-10 15:31N 01°06' E 103°34'611.9
2017-Aug-10 14:59N 01°09' E 103°29'611.8
2017-Aug-10 14:29N 01°12' E 103°24'711.9
2017-Aug-10 13:55N 01°16' E 103°19'  
Track history (hours):
 
Tides and Currents Weather Stations Pressure Air Temp Water Temp Dewpoint Dewpoint Depression Visibility Wind Speed Wind Dir Waves Ship Positions

Maran Canopus

Last reported at 2017-Aug-20 12:05 UTC. Time now 2017-Sep-24 13:57 UTC.
Position N 01°19' E 103°18'.
Warning: this ship's position is 35 days out of date.

Length 333 m; draft 11.4 m.

Type: Ship (hazmat cat A). MMSI: 240677000.

Date/timePositionNaut miles runAvg speedWind from/ knotsBaromVisibWave heightAir tempDewpointWater temp
2017-Aug-20 12:05N 01°19' E 103°18'113.9
2017-Aug-20 11:59N 01°18' E 103°19'714.8
2017-Aug-20 11:30N 01°15' E 103°26'610.8
2017-Aug-20 10:59N 01°13' E 103°31'4 8.0
2017-Aug-20 10:30N 01°12' E 103°35'4 8.2
2017-Aug-20 10:00N 01°11' E 103°39'4 7.7
2017-Aug-20 09:30N 01°09' E 103°42'4 7.5
2017-Aug-20 09:00N 01°09' E 103°46'4 8.0
2017-Aug-20 08:30N 01°11' E 103°50'4 8.7
2017-Aug-20 08:01N 01°13' E 103°54'4 7.6
2017-Aug-20 07:30N 01°15' E 103°57'4 7.2
2017-Aug-20 06:59N 01°16' E 104°01'4 7.3
2017-Aug-20 06:29N 01°17' E 104°04'2 0.5
2017-Aug-20 03:13N 01°18' E 104°05'0 0.0
2017-Aug-20 01:22N 01°18' E 104°05'0 0.1
2017-Aug-19 22:46N 01°19' E 104°05'0 0.1
2017-Aug-19 22:07N 01°18' E 104°05'0 0.0
2017-Aug-19 21:55N 01°18' E 104°05'0 0.0
2017-Aug-19 21:10N 01°18' E 104°05'0 0.0
2017-Aug-19 20:43N 01°18' E 104°05'0 0.0
2017-Aug-19 20:10N 01°18' E 104°05'0 0.0
2017-Aug-19 19:46N 01°18' E 104°05'0 0.0
2017-Aug-19 19:22N 01°18' E 104°05'0 0.0
2017-Aug-19 18:58N 01°18' E 104°05'0 0.0
2017-Aug-19 18:07N 01°18' E 104°05'0 0.0
2017-Aug-19 17:52N 01°18' E 104°05'0 0.0
2017-Aug-19 17:16N 01°18' E 104°05'0 0.0
2017-Aug-19 16:46N 01°18' E 104°05'0 0.1
2017-Aug-19 16:25N 01°18' E 104°05'0 0.1
2017-Aug-19 15:58N 01°18' E 104°05'0 0.1
2017-Aug-19 15:22N 01°18' E 104°05'0 0.1
2017-Aug-19 14:43N 01°18' E 104°05'0 0.3
2017-Aug-19 13:49N 01°19' E 104°05'0 0.1
2017-Aug-19 12:10N 01°18' E 104°05'0 0.1
2017-Aug-19 11:58N 01°18' E 104°05'0 0.0
2017-Aug-19 06:01N 01°18' E 104°05'0 0.1
2017-Aug-19 05:58N 01°18' E 104°05'0 0.0
2017-Aug-19 02:28N 01°18' E 104°05'0 0.3
2017-Aug-19 02:00N 01°18' E 104°05'1 0.8
2017-Aug-19 01:09N 01°18' E 104°05'0 0.0
2017-Aug-19 00:43N 01°18' E 104°05'0 1.6
2017-Aug-19 00:30N 01°18' E 104°06'1 2.7
2017-Aug-19 00:00N 01°17' E 104°06'3 5.6
2017-Aug-18 23:30N 01°15' E 104°04'1 2.6
2017-Aug-18 23:01N 01°16' E 104°05'  
2017-Aug-10 19:30N 01°16' E 104°07'4 5.8
2017-Aug-10 18:53N 01°15' E 104°03'2 4.5
2017-Aug-10 18:31N 01°15' E 104°02'3 5.2
2017-Aug-10 18:00N 01°15' E 103°59'510.4
2017-Aug-10 17:31N 01°13' E 103°54'611.8
2017-Aug-10 17:00N 01°10' E 103°49'611.5
2017-Aug-10 16:30N 01°07' E 103°44'611.6
2017-Aug-10 16:00N 01°04' E 103°40'611.3
2017-Aug-10 15:31N 01°06' E 103°34'611.9
2017-Aug-10 14:59N 01°09' E 103°29'611.8
2017-Aug-10 14:29N 01°12' E 103°24'711.9
2017-Aug-10 13:55N 01°16' E 103°19'  

Dump ship's entire track history